createdAt,value
2023-01-10T00:01:47.172Z,7.40
2023-01-10T00:04:51.042Z,8.17
2023-01-10T00:07:54.998Z,8.53
2023-01-10T00:10:58.955Z,8.73
2023-01-10T00:14:01.934Z,8.93
2023-01-10T00:17:07.451Z,8.77
2023-01-10T00:20:13.192Z,8.40
2023-01-10T00:23:17.467Z,8.90
2023-01-10T00:26:21.406Z,8.23
2023-01-10T00:29:31.342Z,7.50
2023-01-10T00:32:36.703Z,8.80
2023-01-10T00:35:40.448Z,7.40
2023-01-10T00:38:44.263Z,8.40
2023-01-10T00:42:05.797Z,7.90
2023-01-10T00:45:11.914Z,8.10
2023-01-10T00:48:18.473Z,7.37
2023-01-10T00:51:22.255Z,7.33
2023-01-10T00:54:26.585Z,7.03
2023-01-10T00:57:30.401Z,7.13
2023-01-10T01:00:34.218Z,7.43
2023-01-10T01:03:39.461Z,7.03
2023-01-10T01:06:47.102Z,6.77
2023-01-10T01:10:08.590Z,7.10
2023-01-10T01:13:17.665Z,6.30
2023-01-10T01:16:22.471Z,6.73
2023-01-10T01:19:29.129Z,5.47
2023-01-10T01:22:33.178Z,5.47
2023-01-10T01:25:37.192Z,7.27
2023-01-10T01:28:41.057Z,5.27
2023-01-10T01:31:44.872Z,4.53
2023-01-10T01:34:50.436Z,4.20
2023-01-10T01:37:54.551Z,4.47
2023-01-10T01:40:58.449Z,4.10
2023-01-10T01:44:05.573Z,3.93
2023-01-10T01:47:20.536Z,3.97
2023-01-10T01:50:34.012Z,4.37
2023-01-10T01:53:45.968Z,3.47
2023-01-10T01:56:53.556Z,3.40
2023-01-10T01:59:58.061Z,3.50
2023-01-10T02:03:04.502Z,3.70
2023-01-10T02:06:10.804Z,3.50
2023-01-10T02:09:24.703Z,3.70
2023-01-10T02:12:31.444Z,3.53
2023-01-10T02:15:35.775Z,3.20
2023-01-10T02:18:42.836Z,3.80
2023-01-10T02:22:41.835Z,3.03
2023-01-10T02:26:39.664Z,4.03
2023-01-10T02:30:28.666Z,3.37
2023-01-10T02:33:40.891Z,4.00
2023-01-10T02:37:00.200Z,4.23
2023-01-10T02:40:15.615Z,3.37
2023-01-10T02:43:25.076Z,3.37
2023-01-10T02:46:32.795Z,3.67
2023-01-10T02:49:46.647Z,3.77
2023-01-10T02:52:50.879Z,3.37
2023-01-10T02:56:48.133Z,3.33
2023-01-10T03:00:21.336Z,3.20
2023-01-10T03:03:43.010Z,3.90
2023-01-10T03:06:59.319Z,4.00
2023-01-10T03:10:10.150Z,3.63
2023-01-10T03:13:21.284Z,3.93
2023-01-10T03:16:30.821Z,3.87
2023-01-10T03:19:43.725Z,3.90
2023-01-10T03:22:51.188Z,4.07
2023-01-10T03:25:59.119Z,3.93
2023-01-10T03:29:09.192Z,3.60
2023-01-10T03:32:18.562Z,3.47
2023-01-10T03:35:34.177Z,4.20
2023-01-10T03:38:48.303Z,3.37
2023-01-10T03:42:03.743Z,3.83
2023-01-10T03:45:13.885Z,3.93
2023-01-10T03:48:22.191Z,3.93
2023-01-10T03:51:28.767Z,3.93
2023-01-10T03:54:33.993Z,3.90
2023-01-10T03:57:37.758Z,4.00
2023-01-10T04:00:41.869Z,3.60
2023-01-10T04:03:45.764Z,3.50
2023-01-10T04:06:49.519Z,4.17
2023-01-10T04:09:55.055Z,4.00
2023-01-10T04:13:02.789Z,3.37
2023-01-10T04:16:07.452Z,4.53
2023-01-10T04:19:11.247Z,3.87
2023-01-10T04:22:15.356Z,4.17
2023-01-10T04:25:20.520Z,4.03
2023-01-10T04:28:24.741Z,3.73
2023-01-10T04:31:29.284Z,3.40
2023-01-10T04:34:33.121Z,4.40
2023-01-10T04:37:38.026Z,4.27
2023-01-10T04:40:43.425Z,3.63
2023-01-10T04:43:47.403Z,3.67
2023-01-10T04:46:51.121Z,4.20
2023-01-10T04:49:55.073Z,3.93
2023-01-10T04:52:59.033Z,3.70
2023-01-10T04:56:10.365Z,4.13
2023-01-10T04:59:14.230Z,4.57
2023-01-10T05:02:18.198Z,4.17
2023-01-10T05:05:22.075Z,4.27
2023-01-10T05:08:25.940Z,4.60
2023-01-10T05:11:31.162Z,3.23
2023-01-10T05:14:35.253Z,4.60
2023-01-10T05:17:39.589Z,3.63
2023-01-10T05:20:43.452Z,4.33
2023-01-10T05:23:47.181Z,3.23
2023-01-10T05:26:52.582Z,4.60
2023-01-10T05:29:56.416Z,3.77
2023-01-10T05:33:00.190Z,4.40
2023-01-10T05:36:05.718Z,3.50
2023-01-10T05:39:09.971Z,4.13
2023-01-10T05:42:15.495Z,4.63
2023-01-10T05:45:19.492Z,3.93
2023-01-10T05:48:23.814Z,4.20
2023-01-10T05:51:27.809Z,4.33
2023-01-10T05:54:34.482Z,4.20
2023-01-10T05:57:39.992Z,5.47
2023-01-10T06:00:43.906Z,4.30
2023-01-10T06:03:48.491Z,3.83
2023-01-10T06:06:52.265Z,3.83
2023-01-10T06:09:56.200Z,4.03
2023-01-10T06:13:01.488Z,4.90
2023-01-10T06:16:06.210Z,4.73
2023-01-10T06:19:09.954Z,5.33
2023-01-10T06:22:13.916Z,4.23
2023-01-10T06:25:17.993Z,5.03
2023-01-10T06:28:23.315Z,4.37
2023-01-10T06:31:27.475Z,4.93
2023-01-10T06:34:31.502Z,5.40
2023-01-10T06:37:35.517Z,5.00
2023-01-10T06:40:39.958Z,4.67
2023-01-10T06:43:47.777Z,5.07
2023-01-10T06:46:51.910Z,5.07
2023-01-10T06:49:55.855Z,4.50
2023-01-10T06:53:05.347Z,4.67
2023-01-10T06:56:10.481Z,4.77
2023-01-10T06:59:15.935Z,4.67
2023-01-10T07:02:20.380Z,4.33
2023-01-10T07:05:25.021Z,5.20
2023-01-10T07:08:31.721Z,4.13
2023-01-10T07:11:38.924Z,4.33
2023-01-10T07:14:44.428Z,4.70
2023-01-10T07:17:48.370Z,3.90
2023-01-10T07:20:53.547Z,4.30
2023-01-10T07:23:58.690Z,4.53
2023-01-10T07:27:03.282Z,3.93
2023-01-10T07:30:11.296Z,4.20
2023-01-10T07:33:15.199Z,4.27
2023-01-10T07:36:19.698Z,4.73
2023-01-10T07:39:23.619Z,4.20
2023-01-10T07:42:27.656Z,4.50
2023-01-10T07:45:33.104Z,5.10
2023-01-10T07:48:37.665Z,5.77
2023-01-10T07:51:41.965Z,5.23
2023-01-10T07:54:45.965Z,5.13
2023-01-10T07:57:51.706Z,6.57
2023-01-10T08:01:01.076Z,5.33
2023-01-10T08:04:06.643Z,5.20
2023-01-10T08:07:10.549Z,6.00
2023-01-10T08:10:14.743Z,6.80
2023-01-10T08:13:19.376Z,6.80
2023-01-10T08:16:24.885Z,6.40
2023-01-10T08:19:28.782Z,6.87
2023-01-10T08:22:32.859Z,6.53
2023-01-10T08:25:39.428Z,7.07
2023-01-10T08:28:43.646Z,6.63
2023-01-10T08:31:48.896Z,7.07
2023-01-10T08:34:52.814Z,6.67
2023-01-10T08:38:00.467Z,6.93
2023-01-10T08:41:05.098Z,6.17
2023-01-10T08:44:09.213Z,6.43
2023-01-10T08:47:14.638Z,6.30
2023-01-10T08:50:19.449Z,7.10
2023-01-10T08:53:23.993Z,7.27
2023-01-10T08:56:27.820Z,6.47
2023-01-10T08:59:31.546Z,6.90
2023-01-10T09:02:36.768Z,6.90
2023-01-10T09:05:40.745Z,6.70
2023-01-10T09:08:45.034Z,6.67
2023-01-10T09:11:49.071Z,6.53
2023-01-10T09:14:52.856Z,6.13
2023-01-10T09:18:00.770Z,5.90
2023-01-10T09:21:05.798Z,6.70
2023-01-10T09:24:09.792Z,7.43
2023-01-10T09:27:13.576Z,6.20
2023-01-10T09:30:20.551Z,5.53
2023-01-10T09:33:28.054Z,5.33
2023-01-10T09:36:33.865Z,5.80
2023-01-10T09:39:37.610Z,5.40
2023-01-10T09:43:05.492Z,6.20
2023-01-10T09:46:21.895Z,5.37
2023-01-10T09:49:49.539Z,5.03
2023-01-10T09:53:00.105Z,7.10
2023-01-10T09:56:06.305Z,5.33
2023-01-10T09:59:18.727Z,5.53
2023-01-10T10:02:32.558Z,5.73
2023-01-10T10:05:38.390Z,5.50
2023-01-10T10:08:44.568Z,5.73
2023-01-10T10:12:06.080Z,5.80
2023-01-10T10:15:35.596Z,6.77
2023-01-10T10:18:51.363Z,6.57
2023-01-10T10:22:10.105Z,6.63
2023-01-10T10:25:45.556Z,6.77
2023-01-10T10:29:36.141Z,6.50
2023-01-10T10:33:02.927Z,6.67
2023-01-10T10:36:16.480Z,7.17
2023-01-10T10:39:30.146Z,7.13
2023-01-10T10:42:39.680Z,7.07
2023-01-10T10:45:49.636Z,8.00
2023-01-10T10:49:02.042Z,7.63
2023-01-10T10:52:19.555Z,8.63
2023-01-10T10:55:33.679Z,8.27
2023-01-10T10:58:49.596Z,8.23
2023-01-10T11:01:53.747Z,9.20
2023-01-10T11:05:01.224Z,8.87
2023-01-10T11:08:12.245Z,8.63
2023-01-10T11:11:26.474Z,9.10
2023-01-10T11:14:47.270Z,9.70
2023-01-10T11:18:07.601Z,10.30
2023-01-10T11:21:16.783Z,9.77
2023-01-10T11:24:32.769Z,9.40
2023-01-10T11:27:49.665Z,10.63
2023-01-10T11:30:54.040Z,9.73
2023-01-10T11:33:59.171Z,9.40
2023-01-10T11:37:07.277Z,9.17
2023-01-10T11:40:25.909Z,9.43
2023-01-10T11:43:35.261Z,8.40
2023-01-10T11:46:44.207Z,9.23
2023-01-10T11:49:50.343Z,7.77
2023-01-10T11:52:56.418Z,7.77
2023-01-10T11:56:02.345Z,7.20
2023-01-10T11:59:16.695Z,7.90
2023-01-10T12:02:27.551Z,6.33
2023-01-10T12:05:32.473Z,7.43
2023-01-10T12:08:38.979Z,7.53
2023-01-10T12:11:42.951Z,6.87
2023-01-10T12:14:49.505Z,6.87
2023-01-10T12:17:55.520Z,5.93
2023-01-10T12:21:00.661Z,7.03
2023-01-10T12:24:16.767Z,6.90
2023-01-10T12:27:24.683Z,6.93
2023-01-10T12:30:36.290Z,6.87
2023-01-10T12:33:47.661Z,6.40
2023-01-10T12:37:02.542Z,6.40
2023-01-10T12:40:18.652Z,6.10
2023-01-10T12:43:49.113Z,6.43
2023-01-10T12:47:09.431Z,6.37
2023-01-10T12:50:22.587Z,6.27
2023-01-10T12:53:37.279Z,6.80
2023-01-10T12:56:42.502Z,6.97
2023-01-10T12:59:47.130Z,6.80
2023-01-10T13:02:59.183Z,6.77
2023-01-10T13:06:03.630Z,6.97
2023-01-10T13:09:12.551Z,6.53
2023-01-10T13:12:25.514Z,6.80
2023-01-10T13:15:44.546Z,6.97
2023-01-10T13:19:27.961Z,7.50
2023-01-10T13:22:38.944Z,7.53
2023-01-10T13:25:54.913Z,8.33
2023-01-10T13:29:04.079Z,7.47
2023-01-10T13:32:23.707Z,8.53
2023-01-10T13:35:29.564Z,7.73
2023-01-10T13:38:46.247Z,8.00
2023-01-10T13:42:45.874Z,7.20
2023-01-10T13:46:28.463Z,8.43
2023-01-10T13:49:50.234Z,8.07
2023-01-10T13:52:56.742Z,8.50
2023-01-10T13:56:01.021Z,8.03
2023-01-10T13:59:29.704Z,8.80
2023-01-10T14:02:34.878Z,6.37
2023-01-10T14:05:38.989Z,6.60
2023-01-10T14:08:53.095Z,7.27
2023-01-10T14:12:03.272Z,7.37
2023-01-10T14:15:24.719Z,7.03
2023-01-10T14:18:36.249Z,6.53
2023-01-10T14:21:45.737Z,6.73
2023-01-10T14:24:54.387Z,6.53
2023-01-10T14:27:59.902Z,6.80
2023-01-10T14:31:10.976Z,6.83
2023-01-10T14:34:25.032Z,6.50
2023-01-10T14:37:37.682Z,6.10
2023-01-10T14:40:46.970Z,6.50
2023-01-10T14:43:58.930Z,7.17
2023-01-10T14:47:04.551Z,6.30
2023-01-10T14:50:25.222Z,7.03
2023-01-10T14:53:31.417Z,5.80
2023-01-10T14:56:42.494Z,7.40
2023-01-10T14:59:46.537Z,6.57
2023-01-10T15:02:51.276Z,6.77
2023-01-10T15:05:58.839Z,5.90
2023-01-10T15:09:03.842Z,6.53
2023-01-10T15:12:15.202Z,6.33
2023-01-10T15:15:38.414Z,7.33
2023-01-10T15:18:47.509Z,7.05
2023-01-10T15:21:52.049Z,7.67
2023-01-10T15:25:06.965Z,8.13
2023-01-10T15:28:19.677Z,7.67
2023-01-10T15:31:24.808Z,9.00
2023-01-10T15:34:32.413Z,8.20
2023-01-10T15:37:41.093Z,7.57
2023-01-10T15:40:45.772Z,10.30
2023-01-10T15:43:54.469Z,9.20
2023-01-10T15:46:59.214Z,10.17
2023-01-10T15:50:03.915Z,9.47
2023-01-10T15:53:11.477Z,10.13
2023-01-10T15:56:21.966Z,10.40
2023-01-10T15:59:32.968Z,9.93
2023-01-10T16:02:37.943Z,10.30
2023-01-10T16:05:51.529Z,9.20
2023-01-10T16:08:59.357Z,9.70
2023-01-10T16:12:20.568Z,8.70
2023-01-10T16:15:29.128Z,8.37
2023-01-10T16:18:33.256Z,9.97
2023-01-10T16:21:42.543Z,8.60
2023-01-10T16:24:47.607Z,9.20
2023-01-10T16:27:51.531Z,8.77
2023-01-10T16:30:57.102Z,8.57
2023-01-10T16:34:00.809Z,8.67
2023-01-10T16:37:05.385Z,8.00
2023-01-10T16:40:21.524Z,7.97
2023-01-10T16:43:27.014Z,7.67
2023-01-10T16:46:33.051Z,8.83
2023-01-10T16:49:36.904Z,7.80
2023-01-10T16:52:40.781Z,6.97
2023-01-10T16:55:47.687Z,7.60
2023-01-10T16:58:53.368Z,6.90
2023-01-10T17:02:00.216Z,6.17
2023-01-10T17:05:04.133Z,6.13
2023-01-10T17:08:15.330Z,6.80
2023-01-10T17:11:23.977Z,7.07
2023-01-10T17:14:27.690Z,7.20
2023-01-10T17:17:33.173Z,5.77
2023-01-10T17:20:36.847Z,5.43
2023-01-10T17:23:41.945Z,4.80
2023-01-10T17:26:45.599Z,5.03
2023-01-10T17:29:49.279Z,5.60
2023-01-10T17:32:54.285Z,4.93
2023-01-10T17:35:58.807Z,5.30
2023-01-10T17:39:02.456Z,5.20
2023-01-10T17:42:06.959Z,5.53
2023-01-10T17:45:11.168Z,5.27
2023-01-10T17:48:19.258Z,5.33
2023-01-10T17:51:24.875Z,4.43
2023-01-10T17:54:28.710Z,5.03
2023-01-10T17:57:33.593Z,3.83
2023-01-10T18:00:37.308Z,4.63
2023-01-10T18:03:42.665Z,4.13
2023-01-10T18:06:46.506Z,3.97
2023-01-10T18:09:50.303Z,4.27
2023-01-10T18:12:55.163Z,3.93
2023-01-10T18:15:58.999Z,4.37
2023-01-10T18:19:04.113Z,3.30
2023-01-10T18:22:22.441Z,3.33
2023-01-10T18:25:26.475Z,2.93
2023-01-10T18:28:41.725Z,3.13
2023-01-10T18:31:46.306Z,3.13
2023-01-10T18:34:51.620Z,3.73
2023-01-10T18:37:57.383Z,3.67
2023-01-10T18:41:01.213Z,3.50
2023-01-10T18:44:05.029Z,4.50
2023-01-10T18:47:09.917Z,3.40
2023-01-10T18:50:15.667Z,3.53
2023-01-10T18:53:19.456Z,3.03
2023-01-10T18:56:23.083Z,3.30
2023-01-10T18:59:26.734Z,4.10
2023-01-10T19:02:30.473Z,3.63
2023-01-10T19:05:35.482Z,3.70
2023-01-10T19:08:39.758Z,3.77
2023-01-10T19:11:44.121Z,3.03
2023-01-10T19:14:47.739Z,2.57
2023-01-10T19:17:51.349Z,3.60
2023-01-10T19:20:57.865Z,3.13
2023-01-10T19:24:05.630Z,3.13
2023-01-10T19:27:09.370Z,2.87
2023-01-10T19:30:13.623Z,3.60
2023-01-10T19:33:17.484Z,3.23
2023-01-10T19:36:24.480Z,2.80
2023-01-10T19:39:28.291Z,3.37
2023-01-10T19:42:31.989Z,3.27
2023-01-10T19:45:35.774Z,3.50
2023-01-10T19:48:40.138Z,2.90
2023-01-10T19:51:51.321Z,2.80
2023-01-10T19:54:55.424Z,3.37
2023-01-10T19:57:59.334Z,3.17
2023-01-10T20:01:10.732Z,3.00
2023-01-10T20:04:15.020Z,2.40
2023-01-10T20:07:20.153Z,2.40
2023-01-10T20:10:23.782Z,3.13
2023-01-10T20:13:27.640Z,3.10
2023-01-10T20:16:31.229Z,3.10
2023-01-10T20:19:35.393Z,3.87
2023-01-10T20:22:40.423Z,3.70
2023-01-10T20:25:45.254Z,2.90
2023-01-10T20:28:50.683Z,3.03
2023-01-10T20:31:57.325Z,2.93
2023-01-10T20:35:00.987Z,2.77
2023-01-10T20:38:07.309Z,3.27
2023-01-10T20:41:15.431Z,2.87
2023-01-10T20:44:19.418Z,3.10
2023-01-10T20:47:23.446Z,3.30
2023-01-10T20:50:27.382Z,3.30
2023-01-10T20:53:33.108Z,2.93
2023-01-10T20:56:37.103Z,3.10
2023-01-10T20:59:40.739Z,3.13
2023-01-10T21:02:44.728Z,3.53
2023-01-10T21:05:51.732Z,3.40
2023-01-10T21:08:56.923Z,3.77
2023-01-10T21:12:13.903Z,2.70
2023-01-10T21:15:31.375Z,3.10
2023-01-10T21:18:41.020Z,3.53
2023-01-10T21:21:45.287Z,3.30
2023-01-10T21:24:52.392Z,3.07
2023-01-10T21:27:56.857Z,3.63
2023-01-10T21:31:01.240Z,3.10
2023-01-10T21:34:05.133Z,3.57
2023-01-10T21:37:08.864Z,4.00
2023-01-10T21:40:14.412Z,4.10
2023-01-10T21:43:18.175Z,3.20
2023-01-10T21:46:21.922Z,4.23
2023-01-10T21:49:25.599Z,4.77
2023-01-10T21:52:29.261Z,4.33
2023-01-10T21:55:34.335Z,3.13
2023-01-10T21:58:38.102Z,4.37
2023-01-10T22:01:41.899Z,4.50
2023-01-10T22:04:48.350Z,4.10
2023-01-10T22:07:53.424Z,4.37
2023-01-10T22:10:58.738Z,4.90
2023-01-10T22:14:02.512Z,4.47
2023-01-10T22:17:06.400Z,4.03
2023-01-10T22:20:11.919Z,3.80
2023-01-10T22:23:15.586Z,3.37
2023-01-10T22:26:20.630Z,4.33
2023-01-10T22:29:24.898Z,3.63
2023-01-10T22:32:28.535Z,4.30
2023-01-10T22:35:32.119Z,4.93
2023-01-10T22:38:35.964Z,2.70
2023-01-10T22:41:41.557Z,4.60
2023-01-10T22:44:45.334Z,3.37
2023-01-10T22:47:51.831Z,4.10
2023-01-10T22:50:55.550Z,4.43
2023-01-10T22:53:59.421Z,4.07
2023-01-10T22:57:04.484Z,4.27
2023-01-10T23:00:10.507Z,4.17
2023-01-10T23:03:14.101Z,4.63
2023-01-10T23:06:19.109Z,4.17
2023-01-10T23:09:22.766Z,2.67
2023-01-10T23:12:27.724Z,3.93
2023-01-10T23:15:32.096Z,3.50
2023-01-10T23:18:36.643Z,4.53
2023-01-10T23:21:40.621Z,3.70
2023-01-10T23:24:44.269Z,3.27
2023-01-10T23:27:49.690Z,3.07
2023-01-10T23:30:53.365Z,2.73
2023-01-10T23:33:57.010Z,3.00
2023-01-10T23:37:00.602Z,2.67
2023-01-10T23:40:04.595Z,2.87
2023-01-10T23:43:09.571Z,2.93
2023-01-10T23:46:13.443Z,2.73
2023-01-10T23:49:17.098Z,2.50
2023-01-10T23:52:20.761Z,2.73
2023-01-10T23:55:24.346Z,2.90
2023-01-10T23:58:29.465Z,2.50
